Time;durP1;ratioP1;P1;durP2;ratioP2;P2;SDS_P1;SDS_P2;PMS_P1;PMS_P2;Temp;Humidity;BMP_temperature;BMP_pressure;BME280_temperature;BME280_humidity;BME280_pressure;Samples;Min_cycle;Max_cycle;Signal;HPM_P1;HPM_P2
2021/03/14 00:00:09;;;;;;;3.45;0.60;;;9.50;92.00;9.70;99275.00;;;;337608;28;91148;-92
2021/03/14 00:00:30;;;;;;;3.22;0.52;;;9.50;92.00;9.60;99278.00;;;;339236;28;83735;-92
2021/03/14 00:00:43;;;;;;;1.60;0.30;;;9.50;92.00;9.60;99281.00;;;;342952;28;89050;-93
2021/03/14 00:00:55;;;;;;;1.70;0.50;;;9.40;92.00;9.60;99294.00;;;;343236;28;83453;-92
2021/03/14 00:01:08;;;;;;;2.03;0.50;;;9.40;92.10;9.60;99289.00;;;;341565;28;88858;-92
2021/03/14 00:01:22;;;;;;;1.60;0.30;;;9.40;91.90;9.50;99296.00;;;;338044;28;82727;-93
2021/03/14 00:01:35;;;;;;;1.60;0.30;;;9.40;92.10;9.60;99315.00;;;;340080;28;91784;-92
2021/03/14 00:01:54;;;;;;;1.75;0.50;;;9.40;92.30;9.60;99320.00;;;;339189;28;84840;-92
2021/03/14 00:02:27;;;;;;;1.70;0.68;;;9.30;92.40;9.50;99334.00;;;;341113;28;91840;-92
2021/03/14 00:02:45;;;;;;;3.20;0.70;;;9.30;92.50;9.60;99334.00;;;;340274;28;83911;-92
2021/03/14 00:02:58;;;;;;;3.13;0.70;;;9.30;92.80;9.60;99335.00;;;;339923;28;91677;-92
2021/03/14 00:03:11;;;;;;;1.90;0.30;;;9.30;92.80;9.70;99340.00;;;;340497;28;84927;-92
2021/03/14 00:03:50;;;;;;;2.17;0.30;;;9.30;93.00;9.50;99359.00;;;;341727;28;88217;-93
2021/03/14 00:04:17;;;;;;;2.20;0.20;;;9.30;93.00;9.10;99384.00;;;;341189;28;83510;-92
2021/03/14 00:04:30;;;;;;;1.77;0.20;;;9.20;92.50;8.80;99376.00;;;;336315;28;90969;-92
2021/03/14 00:04:42;;;;;;;3.00;0.10;;;9.10;92.20;8.70;99372.00;;;;340719;28;83310;-92
2021/03/14 00:04:53;;;;;;;6.53;0.70;;;9.00;92.30;8.40;99346.00;;;;338775;28;92442;-92
2021/03/14 00:05:06;;;;;;;5.65;0.75;;;8.80;92.40;8.50;99371.00;;;;340568;28;83710;-93
2021/03/14 00:05:17;;;;;;;7.53;0.80;;;8.80;92.80;8.10;99368.00;;;;341774;28;92084;-93
2021/03/14 00:05:30;;;;;;;3.05;0.30;;;8.60;92.70;7.90;99374.00;;;;342082;28;83436;-92
2021/03/14 00:05:46;;;;;;;0.90;0.20;;;8.50;92.80;8.00;99374.00;;;;340585;28;88734;-93
2021/03/14 00:06:00;;;;;;;2.05;0.20;;;8.40;93.50;8.10;99375.00;;;;342105;28;83708;-92
2021/03/14 00:06:12;;;;;;;2.20;0.30;;;8.30;94.00;8.00;99368.00;;;;340068;28;89956;-92
2021/03/14 00:06:23;;;;;;;2.67;0.20;;;8.30;94.40;7.90;99385.00;;;;340586;28;83381;-92
2021/03/14 00:06:35;;;;;;;1.55;0.20;;;8.20;94.50;7.80;99375.00;;;;340946;28;88285;-92
2021/03/14 00:06:47;;;;;;;1.63;0.20;;;8.10;94.50;7.80;99374.00;;;;341878;28;83777;-92
2021/03/14 00:06:58;;;;;;;1.17;0.20;;;8.00;94.60;7.60;99392.00;;;;338774;28;92633;-93
2021/03/14 00:07:10;;;;;;;1.70;0.30;;;8.00;94.80;7.50;99407.00;;;;341892;28;83651;-93
2021/03/14 00:07:22;;;;;;;2.80;0.28;;;7.80;95.10;7.50;99394.00;;;;338926;28;90372;-93
2021/03/14 00:07:34;;;;;;;2.83;0.20;;;7.80;95.30;7.40;99389.00;;;;340448;28;84036;-92
2021/03/14 00:07:45;;;;;;;3.28;0.20;;;7.70;95.70;7.50;99406.00;;;;338810;28;89039;-92
2021/03/14 00:07:57;;;;;;;3.50;0.55;;;7.60;96.20;7.60;99394.00;;;;341850;28;84332;-92
2021/03/14 00:08:09;;;;;;;4.05;0.70;;;7.60;96.10;7.40;99381.00;;;;341396;28;91968;-92
2021/03/14 00:08:25;;;;;;;3.67;0.68;;;7.50;96.00;7.50;99396.00;;;;343193;28;84632;-91
2021/03/14 00:08:37;;;;;;;1.88;0.10;;;7.50;96.00;7.50;99389.00;;;;339878;28;91896;-92
2021/03/14 00:08:49;;;;;;;1.45;0.15;;;7.40;95.60;7.50;99389.00;;;;342627;28;85000;-93
2021/03/14 00:09:01;;;;;;;0.90;0.10;;;7.40;95.70;7.50;99380.00;;;;341153;28;91595;-93
2021/03/14 00:09:12;;;;;;;0.90;0.10;;;7.40;95.80;7.30;99387.00;;;;340536;28;82650;-91
2021/03/14 00:09:25;;;;;;;2.45;0.80;;;7.40;96.10;7.20;99391.00;;;;341055;28;91956;-92
2021/03/14 00:09:37;;;;;;;3.20;0.98;;;7.30;96.20;7.20;99406.00;;;;340667;28;84439;-93
2021/03/14 00:09:49;;;;;;;2.95;0.90;;;7.30;96.20;7.10;99399.00;;;;340315;28;90803;-92
2021/03/14 00:10:01;;;;;;;2.33;0.17;;;7.20;96.40;7.20;99367.00;;;;340621;28;82514;-91
2021/03/14 00:10:13;;;;;;;1.95;0.10;;;7.10;96.80;7.10;99390.00;;;;340102;28;88824;-92
2021/03/14 00:10:26;;;;;;;1.25;0.10;;;7.10;96.60;7.10;99372.00;;;;339396;28;84209;-91
2021/03/14 00:10:40;;;;;;;1.17;0.10;;;7.10;96.50;7.20;99394.00;;;;341417;28;88293;-91
2021/03/14 00:11:01;;;;;;;1.02;0.10;;;7.00;96.70;7.20;99395.00;;;;340601;28;84768;-92
2021/03/14 00:11:13;;;;;;;1.30;0.20;;;7.00;96.90;7.00;99413.00;;;;340230;28;91733;-92
2021/03/14 00:11:28;;;;;;;6.40;0.30;;;6.90;97.20;7.00;99403.00;;;;340645;28;82820;-93
2021/03/14 00:11:55;;;;;;;7.30;0.32;;;6.90;97.00;7.00;99385.00;;;;341732;28;91622;-92
2021/03/14 00:12:07;;;;;;;0.90;0.13;;;6.80;96.80;7.00;99389.00;;;;339479;28;83399;-93
2021/03/14 00:12:19;;;;;;;0.90;0.10;;;6.80;96.80;7.00;99395.00;;;;339113;28;89314;-93
2021/03/14 00:12:31;;;;;;;0.47;0.10;;;6.80;97.10;6.90;99405.00;;;;339468;28;84549;-93
2021/03/14 00:12:42;;;;;;;0.45;0.10;;;6.70;97.20;6.80;99385.00;;;;340152;28;90944;-92
2021/03/14 00:12:54;;;;;;;1.23;0.10;;;6.60;97.20;6.70;99393.00;;;;341864;28;85456;-93
2021/03/14 00:13:05;;;;;;;1.42;0.10;;;6.60;97.50;6.80;99363.00;;;;341475;28;91598;-92
2021/03/14 00:13:22;;;;;;;1.10;0.10;;;6.60;97.70;6.80;99393.00;;;;337942;28;84247;-93
2021/03/14 00:13:36;;;;;;;1.20;0.30;;;6.60;98.00;6.80;99396.00;;;;342594;28;90871;-92
2021/03/14 00:13:47;;;;;;;1.10;0.30;;;6.60;97.80;6.70;99396.00;;;;343001;28;83938;-91
2021/03/14 00:13:58;;;;;;;1.33;0.20;;;6.50;97.50;6.80;99385.00;;;;341389;28;90635;-92
2021/03/14 00:14:10;;;;;;;0.70;0.20;;;6.50;97.60;6.80;99380.00;;;;340286;28;83519;-91
2021/03/14 00:14:21;;;;;;;0.60;0.10;;;6.50;98.10;6.80;99403.00;;;;341560;28;88986;-92
2021/03/14 00:14:33;;;;;;;0.50;0.10;;;6.50;98.30;6.80;99395.00;;;;341864;28;82967;-93
2021/03/14 00:14:44;;;;;;;0.90;0.20;;;6.50;98.20;6.70;99398.00;;;;339016;28;90661;-93
2021/03/14 00:14:56;;;;;;;1.05;0.30;;;6.50;98.20;6.70;99397.00;;;;340180;28;83586;-92
2021/03/14 00:15:08;;;;;;;1.10;0.30;;;6.40;98.00;6.80;99388.00;;;;340267;28;91823;-92
2021/03/14 00:15:21;;;;;;;0.57;0.10;;;6.40;98.30;6.70;99391.00;;;;340497;28;83585;-92
2021/03/14 00:15:49;;;;;;;1.70;0.20;;;6.40;98.50;6.60;99393.00;;;;341383;28;92028;-91
2021/03/14 00:16:01;;;;;;;1.75;0.20;;;6.40;97.70;6.60;99401.00;;;;337877;28;83753;-93
2021/03/14 00:16:13;;;;;;;1.70;0.15;;;6.30;97.60;6.60;99400.00;;;;338845;28;90908;-93
2021/03/14 00:16:25;;;;;;;2.25;0.25;;;6.30;97.80;6.70;99395.00;;;;340546;28;83576;-92
2021/03/14 00:16:37;;;;;;;2.28;0.30;;;6.30;97.80;6.70;99389.00;;;;338943;28;90965;-93
2021/03/14 00:16:51;;;;;;;1.90;0.30;;;6.30;97.90;6.60;99384.00;;;;341889;28;84391;-94
2021/03/14 00:17:03;;;;;;;1.35;0.20;;;6.20;97.50;6.60;99397.00;;;;340413;28;87813;-92
2021/03/14 00:17:18;;;;;;;0.85;0.20;;;6.30;97.70;6.70;99397.00;;;;337910;28;83445;-93
2021/03/14 00:17:30;;;;;;;1.80;0.10;;;6.30;98.00;6.70;99395.00;;;;341601;28;90790;-91
2021/03/14 00:17:42;;;;;;;1.90;0.10;;;6.30;98.30;6.70;99378.00;;;;341851;28;83579;-93
2021/03/14 00:17:53;;;;;;;0.63;0.10;;;6.30;98.30;6.70;99384.00;;;;339920;28;92326;-92
2021/03/14 00:18:05;;;;;;;0.55;0.10;;;6.30;98.40;6.70;99425.00;;;;339136;28;84994;-92
2021/03/14 00:18:18;;;;;;;1.00;0.10;;;6.30;98.10;6.70;99400.00;;;;337416;28;92680;-93
2021/03/14 00:18:38;;;;;;;1.00;0.15;;;6.30;97.60;6.80;99393.00;;;;339255;28;83005;-93
2021/03/14 00:18:50;;;;;;;1.30;0.20;;;6.30;97.80;6.70;99395.00;;;;341390;28;87609;-92
2021/03/14 00:19:01;;;;;;;1.90;0.20;;;6.30;98.00;6.70;99400.00;;;;340512;28;84843;-92
2021/03/14 00:19:13;;;;;;;1.95;0.20;;;6.30;98.10;6.70;99398.00;;;;341717;28;88300;-93
2021/03/14 00:19:24;;;;;;;1.10;0.10;;;6.30;98.30;6.70;99387.00;;;;341967;28;83433;-93
2021/03/14 00:19:36;;;;;;;0.57;0.10;;;6.30;98.10;6.70;99385.00;;;;337519;28;90929;-92
2021/03/14 00:19:47;;;;;;;0.85;0.10;;;6.30;98.10;6.70;99393.00;;;;342001;28;83394;-92
2021/03/14 00:19:59;;;;;;;1.10;0.10;;;6.30;98.30;6.70;99390.00;;;;340220;28;92203;-93
2021/03/14 00:20:11;;;;;;;1.02;0.10;;;6.30;98.50;6.80;99391.00;;;;340578;28;82513;-95
2021/03/14 00:21:27;;;;;;;0.90;0.20;;;6.30;98.10;6.80;99382.00;;;;341535;28;92112;-95
2021/03/14 00:21:38;;;;;;;0.60;0.20;;;6.30;98.20;6.80;99384.00;;;;343041;28;83799;-93
2021/03/14 00:21:51;;;;;;;0.60;0.16;;;6.40;98.00;6.80;99397.00;;;;340199;28;92302;-92
2021/03/14 00:22:03;;;;;;;0.45;0.10;;;6.30;98.00;6.80;99379.00;;;;341872;28;83866;-93
2021/03/14 00:22:14;;;;;;;0.80;0.10;;;6.30;98.00;6.90;99376.00;;;;341451;28;90934;-92
2021/03/14 00:22:26;;;;;;;1.02;0.13;;;6.40;98.10;6.80;99385.00;;;;341983;28;83559;-92
2021/03/14 00:22:38;;;;;;;0.93;0.28;;;6.30;98.10;6.90;99385.00;;;;341460;28;88619;-92
2021/03/14 00:22:53;;;;;;;0.70;0.28;;;6.40;98.20;6.90;99385.00;;;;341860;28;82539;-93
2021/03/14 00:23:05;;;;;;;0.73;0.20;;;6.40;98.20;6.90;99389.00;;;;339959;28;89998;-93
2021/03/14 00:23:17;;;;;;;1.40;0.20;;;6.40;98.10;6.90;99393.00;;;;340655;28;83380;-93
2021/03/14 00:23:31;;;;;;;1.17;0.20;;;6.40;98.10;6.90;99403.00;;;;341954;28;87780;-93
2021/03/14 00:23:43;;;;;;;0.70;0.10;;;6.40;97.50;6.90;99374.00;;;;340651;28;83992;-92
2021/03/14 00:24:20;;;;;;;1.30;0.10;;;6.40;97.00;6.90;99392.00;;;;341247;28;88908;-91
2021/03/14 00:24:33;;;;;;;1.00;0.15;;;6.40;97.10;6.90;99406.00;;;;340734;28;83249;-93
2021/03/14 00:24:47;;;;;;;1.25;0.10;;;6.40;97.10;6.90;99380.00;;;;343040;28;91372;-93
2021/03/14 00:24:59;;;;;;;1.02;0.10;;;6.40;97.10;6.90;99391.00;;;;341052;28;83271;-92
2021/03/14 00:25:14;;;;;;;0.68;0.10;;;6.40;97.10;6.90;99383.00;;;;340333;28;90544;-92
2021/03/14 00:25:30;;;;;;;0.40;0.10;;;6.40;97.40;7.00;99391.00;;;;340346;28;83477;-92
2021/03/14 00:25:42;;;;;;;0.60;0.20;;;6.50;97.40;7.00;99378.00;;;;340135;28;91658;-93
2021/03/14 00:25:57;;;;;;;0.70;0.25;;;6.50;97.20;7.00;99377.00;;;;339379;28;82448;-92
2021/03/14 00:26:09;;;;;;;1.35;0.20;;;6.50;97.30;7.00;99382.00;;;;344103;28;87306;-93
2021/03/14 00:26:21;;;;;;;1.45;0.10;;;6.50;97.20;7.00;99367.00;;;;340642;28;83297;-93
2021/03/14 00:26:40;;;;;;;1.40;0.15;;;6.50;97.10;7.10;99377.00;;;;340226;28;87378;-94
2021/03/14 00:26:51;;;;;;;0.50;0.10;;;6.50;97.30;7.00;99384.00;;;;341588;28;83470;-93
2021/03/14 00:27:04;;;;;;;0.50;0.10;;;6.50;97.40;7.10;99377.00;;;;340284;28;91626;-93
2021/03/14 00:27:16;;;;;;;0.30;0.10;;;6.50;97.30;7.00;99389.00;;;;340513;28;83643;-93
2021/03/14 00:27:32;;;;;;;0.70;0.20;;;6.50;97.50;7.00;99395.00;;;;338898;28;88395;-93
2021/03/14 00:27:44;;;;;;;0.80;0.10;;;6.50;97.00;7.00;99381.00;;;;340722;28;84531;-93
2021/03/14 00:27:59;;;;;;;1.13;0.10;;;6.50;96.80;7.10;99380.00;;;;338785;28;92882;-93
2021/03/14 00:28:12;;;;;;;0.80;0.10;;;6.50;96.70;7.00;99380.00;;;;339183;28;84484;-92
2021/03/14 00:28:26;;;;;;;0.40;0.10;;;6.50;96.80;7.10;99381.00;;;;340212;28;91704;-93
2021/03/14 00:28:40;;;;;;;0.88;0.10;;;6.60;96.80;7.10;99383.00;;;;340669;28;84229;-93
2021/03/14 00:28:53;;;;;;;0.90;0.10;;;6.60;96.90;7.10;99374.00;;;;341611;28;87092;-93
2021/03/14 00:29:07;;;;;;;0.60;0.10;;;6.60;97.10;7.10;99377.00;;;;338040;28;83467;-91
2021/03/14 00:29:18;;;;;;;0.50;0.10;;;6.60;97.00;7.10;99381.00;;;;341498;28;90952;-94
2021/03/14 00:29:30;;;;;;;0.57;0.13;;;6.60;96.90;7.10;99378.00;;;;339452;28;83779;-93
2021/03/14 00:29:42;;;;;;;0.68;0.20;;;6.60;96.80;7.10;99377.00;;;;338936;28;87097;-93
2021/03/14 00:29:58;;;;;;;0.70;0.20;;;6.60;96.80;7.10;99371.00;;;;340275;28;83187;-92
2021/03/14 00:30:13;;;;;;;0.25;0.10;;;6.60;96.80;7.20;99371.00;;;;340082;28;92205;-93
2021/03/14 00:30:27;;;;;;;0.17;0.10;;;6.60;96.80;7.20;99377.00;;;;339189;28;84671;-93
2021/03/14 00:30:39;;;;;;;0.20;0.10;;;6.70;96.90;7.20;99366.00;;;;338865;28;90769;-92
2021/03/14 00:30:50;;;;;;;0.63;0.10;;;6.70;97.00;7.10;99365.00;;;;340588;28;84466;-93
2021/03/14 00:31:02;;;;;;;0.70;0.10;;;6.60;97.20;7.20;99365.00;;;;338905;28;90976;-92
2021/03/14 00:31:18;;;;;;;0.45;0.10;;;6.70;97.30;7.10;99376.00;;;;338234;28;82161;-93
2021/03/14 00:31:30;;;;;;;0.40;0.10;;;6.70;96.70;7.10;99373.00;;;;338906;28;91379;-91
2021/03/14 00:31:44;;;;;;;0.30;0.10;;;6.70;96.20;7.20;99374.00;;;;339408;28;84646;-92
2021/03/14 00:31:58;;;;;;;0.20;0.10;;;6.70;96.60;7.10;99374.00;;;;338942;28;91823;-93
2021/03/14 00:32:11;;;;;;;0.30;0.20;;;6.70;96.80;7.10;99370.00;;;;340644;28;84032;-92
2021/03/14 00:32:31;;;;;;;0.75;0.20;;;6.70;96.80;7.10;99364.00;;;;340239;28;88585;-92
2021/03/14 00:32:43;;;;;;;0.88;0.20;;;6.60;96.60;7.10;99376.00;;;;338077;28;83430;-94
2021/03/14 00:32:56;;;;;;;1.00;0.30;;;6.70;96.50;7.10;99377.00;;;;342059;28;91218;-92
2021/03/14 00:33:10;;;;;;;0.63;0.25;;;6.70;96.30;7.10;99367.00;;;;339232;28;84777;-93
2021/03/14 00:33:22;;;;;;;0.55;0.10;;;6.60;95.90;7.20;99373.00;;;;339458;28;88204;-92
2021/03/14 00:33:35;;;;;;;0.45;0.10;;;6.70;95.90;7.10;99372.00;;;;337878;28;82786;-92
2021/03/14 00:33:47;;;;;;;0.40;0.10;;;6.70;96.10;7.10;99372.00;;;;340315;28;91141;-93
2021/03/14 00:34:02;;;;;;;0.30;0.10;;;6.70;96.10;7.20;99367.00;;;;340541;28;83672;-93
2021/03/14 00:34:14;;;;;;;0.50;0.10;;;6.70;96.10;7.20;99371.00;;;;339885;28;91163;-92
2021/03/14 00:34:42;;;;;;;0.63;0.13;;;6.70;96.20;7.20;99369.00;;;;341246;28;83073;-92
2021/03/14 00:34:54;;;;;;;0.50;0.10;;;6.70;96.10;7.10;99379.00;;;;341181;28;93197;-94
2021/03/14 00:35:09;;;;;;;0.43;0.10;;;6.70;96.10;7.20;99374.00;;;;340606;28;84346;-94
2021/03/14 00:35:20;;;;;;;0.75;0.22;;;6.70;95.90;7.20;99364.00;;;;341411;28;88394;-93
2021/03/14 00:35:32;;;;;;;1.30;0.30;;;6.70;95.70;7.30;99377.00;;;;342036;28;84916;-93
2021/03/14 00:35:44;;;;;;;1.25;0.20;;;6.70;95.90;7.30;99369.00;;;;340341;28;87441;-92
2021/03/14 00:36:11;;;;;;;0.38;0.10;;;6.70;95.90;7.20;99370.00;;;;338558;28;84109;-93
2021/03/14 00:36:23;;;;;;;0.60;0.17;;;6.70;95.70;7.20;99366.00;;;;340025;28;90839;-92
2021/03/14 00:36:35;;;;;;;0.65;0.20;;;6.70;95.60;7.20;99370.00;;;;340568;28;83447;-91
2021/03/14 00:36:46;;;;;;;0.50;0.20;;;6.70;95.70;7.20;99364.00;;;;338840;28;90626;-92
2021/03/14 00:37:02;;;;;;;0.60;0.10;;;6.70;95.80;7.20;99366.00;;;;341892;28;83031;-93
2021/03/14 00:37:16;;;;;;;0.60;0.10;;;6.70;96.10;7.20;99359.00;;;;340052;28;88437;-93
2021/03/14 00:37:29;;;;;;;0.85;0.10;;;6.70;96.20;7.20;99362.00;;;;340516;28;85785;-93
2021/03/14 00:38:02;;;;;;;0.25;0.25;;;6.70;96.40;7.10;99361.00;;;;340094;28;89133;-92
2021/03/14 00:38:14;;;;;;;0.40;0.20;;;6.80;95.80;7.20;99359.00;;;;342019;28;82441;-92
2021/03/14 00:38:30;;;;;;;1.20;0.30;;;6.80;95.90;7.10;99366.00;;;;340453;28;91324;-93
2021/03/14 00:38:42;;;;;;;1.55;0.20;;;6.70;96.10;7.10;99377.00;;;;343722;28;83196;-92
2021/03/14 00:39:09;;;;;;;1.17;0.32;;;6.70;96.20;7.20;99363.00;;;;343080;28;87023;-93
2021/03/14 00:39:22;;;;;;;0.68;0.20;;;6.70;95.70;7.20;99361.00;;;;342403;28;83275;-91
2021/03/14 00:39:39;;;;;;;0.80;0.17;;;6.80;95.80;7.10;99369.00;;;;343058;28;92767;-92
2021/03/14 00:39:52;;;;;;;0.50;0.10;;;6.70;96.00;7.10;99367.00;;;;340872;28;83743;-92
2021/03/14 00:40:06;;;;;;;0.40;0.10;;;6.70;96.00;7.10;99361.00;;;;341609;28;91973;-93
2021/03/14 00:40:23;;;;;;;0.50;0.17;;;6.70;96.20;7.10;99366.00;;;;340793;28;83149;-93
2021/03/14 00:40:50;;;;;;;2.00;0.20;;;6.70;96.20;7.20;99365.00;;;;340797;28;88148;-92
2021/03/14 00:41:16;;;;;;;0.60;0.10;;;6.70;96.30;7.20;99368.00;;;;338148;28;82715;-91
2021/03/14 00:41:42;;;;;;;0.60;0.10;;;6.70;96.20;7.10;99367.00;;;;341176;28;89251;-90
2021/03/14 00:41:53;;;;;;;0.68;0.10;;;6.70;96.50;7.20;99377.00;;;;341774;28;84026;-91
2021/03/14 00:42:05;;;;;;;0.40;0.10;;;6.70;96.60;7.20;99365.00;;;;340511;28;94018;-92
2021/03/14 00:42:17;;;;;;;0.30;0.10;;;6.70;96.70;7.30;99365.00;;;;339455;28;82450;-91
2021/03/14 00:42:29;;;;;;;0.30;0.10;;;6.80;96.70;7.20;99374.00;;;;339114;28;94290;-92
2021/03/14 00:42:40;;;;;;;0.32;0.10;;;6.80;96.60;7.10;99377.00;;;;339677;28;83676;-92
2021/03/14 00:43:10;;;;;;;0.22;0.10;;;6.70;96.30;7.20;99373.00;;;;339103;28;92435;-91
2021/03/14 00:43:22;;;;;;;0.13;0.10;;;6.80;96.40;7.20;99370.00;;;;339336;28;83891;-91
2021/03/14 00:43:33;;;;;;;0.38;0.10;;;6.70;96.40;7.20;99372.00;;;;340401;28;90815;-92
2021/03/14 00:43:45;;;;;;;1.00;0.50;;;6.80;96.40;7.30;99379.00;;;;340918;28;83266;-91
2021/03/14 00:43:56;;;;;;;1.00;0.50;;;6.70;96.40;7.30;99377.00;;;;340548;28;90992;-91
2021/03/14 00:44:08;;;;;;;0.70;0.50;;;6.80;96.60;7.30;99375.00;;;;340873;28;84484;-92
2021/03/14 00:44:19;;;;;;;0.20;0.10;;;6.80;96.60;7.30;99382.00;;;;339450;28;90753;-91
2021/03/14 00:44:31;;;;;;;0.15;0.10;;;6.80;96.60;7.30;99386.00;;;;341229;28;83582;-91
2021/03/14 00:44:50;;;;;;;0.20;0.10;;;6.80;96.70;7.30;99387.00;;;;340567;28;91305;-90
2021/03/14 00:45:04;;;;;;;0.17;0.08;;;6.80;96.80;7.40;99381.00;;;;339857;28;83397;-92
2021/03/14 00:45:16;;;;;;;0.13;0.10;;;6.80;96.80;7.40;99378.00;;;;340696;28;93489;-91
2021/03/14 00:45:32;;;;;;;0.20;0.10;;;6.90;96.90;7.30;99381.00;;;;342591;28;83404;-92
2021/03/14 00:45:44;;;;;;;0.22;0.10;;;6.90;96.90;7.40;99376.00;;;;340848;28;92193;-91
2021/03/14 00:46:12;;;;;;;0.80;0.10;;;6.90;96.90;7.40;99379.00;;;;340737;28;83816;-92
2021/03/14 00:46:30;;;;;;;0.55;0.10;;;6.90;96.40;7.40;99378.00;;;;340751;28;90821;-91
2021/03/14 00:46:41;;;;;;;0.95;0.20;;;6.90;96.30;7.30;99380.00;;;;340920;28;83573;-91
2021/03/14 00:46:53;;;;;;;1.00;0.20;;;6.90;96.00;7.30;99381.00;;;;340730;28;90240;-91
2021/03/14 00:47:05;;;;;;;0.35;0.10;;;6.90;95.50;7.30;99390.00;;;;339972;28;82294;-91
2021/03/14 00:47:16;;;;;;;0.32;0.10;;;6.90;95.10;7.20;99387.00;;;;339190;28;92135;-93
2021/03/14 00:47:28;;;;;;;0.20;0.10;;;6.90;94.90;7.20;99379.00;;;;342262;28;84489;-92
2021/03/14 00:47:40;;;;;;;0.17;0.10;;;6.90;95.20;7.30;99377.00;;;;341907;28;92651;-91
2021/03/14 00:47:51;;;;;;;2.00;0.95;;;6.90;95.50;7.30;99379.00;;;;339784;28;83139;-92
2021/03/14 00:48:05;;;;;;;2.22;1.00;;;6.90;95.90;7.30;99375.00;;;;338177;28;90322;-91
2021/03/14 00:48:17;;;;;;;1.77;0.70;;;6.90;95.80;7.30;99385.00;;;;339685;28;84002;-92
2021/03/14 00:48:28;;;;;;;1.77;0.30;;;6.90;95.90;7.40;99390.00;;;;340480;28;89649;-92
2021/03/14 00:48:41;;;;;;;1.80;0.30;;;6.90;95.90;7.30;99381.00;;;;340974;28;84423;-92
2021/03/14 00:48:57;;;;;;;0.82;0.28;;;6.90;95.80;7.40;99375.00;;;;342220;28;90220;-91
2021/03/14 00:49:35;;;;;;;1.70;0.70;;;6.90;95.90;7.30;99386.00;;;;340496;28;83429;-91
2021/03/14 00:49:47;;;;;;;0.68;0.20;;;6.90;96.10;7.30;99385.00;;;;339762;28;90846;-91
2021/03/14 00:50:17;;;;;;;1.35;0.10;;;6.90;96.00;7.30;99383.00;;;;339763;28;82421;-90
2021/03/14 00:50:36;;;;;;;0.70;0.10;;;6.90;96.10;7.30;99382.00;;;;337730;28;91527;-90
2021/03/14 00:50:47;;;;;;;0.20;0.10;;;6.90;95.90;7.30;99379.00;;;;339187;28;83770;-91
2021/03/14 00:51:00;;;;;;;0.55;0.10;;;6.90;95.90;7.40;99375.00;;;;339405;28;87520;-91
2021/03/14 00:51:12;;;;;;;0.70;0.17;;;6.90;95.90;7.40;99371.00;;;;344674;28;82426;-91
2021/03/14 00:51:27;;;;;;;0.70;0.20;;;6.90;96.30;7.30;99376.00;;;;341552;28;90939;-92
2021/03/14 00:51:39;;;;;;;0.57;0.15;;;6.90;96.10;7.30;99376.00;;;;341733;28;84368;-92
2021/03/14 00:52:18;;;;;;;0.35;0.13;;;6.90;95.90;7.40;99382.00;;;;347524;28;75916;-91
2021/03/14 00:52:34;;;;;;;0.35;0.20;;;7.00;95.80;7.30;99381.00;;;;345623;28;82450;-92
2021/03/14 00:52:53;;;;;;;0.20;0.20;;;6.90;95.60;7.30;99374.00;;;;339891;28;87083;-90
2021/03/14 00:53:06;;;;;;;0.20;0.10;;;6.90;95.20;7.30;99371.00;;;;341292;28;83734;-91
2021/03/14 00:53:18;;;;;;;1.00;0.10;;;7.00;95.40;7.30;99380.00;;;;338730;28;88279;-92
2021/03/14 00:53:44;;;;;;;0.32;0.10;;;6.90;95.70;7.30;99389.00;;;;340754;28;83472;-91
2021/03/14 00:53:55;;;;;;;0.50;0.10;;;7.00;95.20;7.40;99385.00;;;;341467;28;87963;-91
2021/03/14 00:54:10;;;;;;;1.13;0.10;;;6.90;95.30;7.30;99387.00;;;;338796;28;82537;-92
2021/03/14 00:54:22;;;;;;;1.33;0.10;;;6.90;95.00;7.40;99381.00;;;;340023;28;88634;-90
2021/03/14 00:54:36;;;;;;;0.63;0.10;;;6.90;95.00;7.40;99361.00;;;;341688;28;83409;-91
2021/03/14 00:54:50;;;;;;;0.45;0.10;;;6.90;95.00;7.40;99379.00;;;;341259;28;84749;-92
2021/03/14 00:55:14;;;;;;;0.40;0.10;;;6.90;95.30;7.40;99373.00;;;;341558;28;83533;-91
2021/03/14 00:55:29;;;;;;;0.28;0.10;;;6.90;95.10;7.40;99388.00;;;;342887;28;85732;-91
2021/03/14 00:55:46;;;;;;;0.40;0.10;;;7.00;95.20;7.30;99382.00;;;;338802;28;84271;-91
2021/03/14 00:55:58;;;;;;;0.30;0.10;;;7.00;95.00;7.30;99390.00;;;;343380;28;86069;-91
2021/03/14 00:56:13;;;;;;;0.70;0.10;;;7.00;95.00;7.40;99380.00;;;;340981;28;84425;-91
2021/03/14 00:56:26;;;;;;;0.70;0.10;;;6.90;94.90;7.40;99385.00;;;;338655;28;87597;-92
2021/03/14 00:56:53;;;;;;;0.75;0.13;;;6.90;94.90;7.40;99382.00;;;;342101;28;83699;-92
2021/03/14 00:57:11;;;;;;;1.60;0.30;;;7.00;95.30;7.30;99398.00;;;;339860;28;85582;-91
2021/03/14 00:57:41;;;;;;;0.20;0.10;;;6.90;95.10;7.30;99396.00;;;;337509;28;82369;-91
2021/03/14 00:58:13;;;;;;;0.40;0.10;;;6.90;94.80;7.30;99397.00;;;;341406;28;85957;-90
2021/03/14 00:58:33;;;;;;;0.30;0.15;;;6.90;95.00;7.40;99397.00;;;;340142;28;83501;-89
2021/03/14 00:59:01;;;;;;;1.20;0.40;;;6.90;95.00;7.40;99394.00;;;;339551;28;85309;-91
2021/03/14 00:59:15;;;;;;;1.10;0.25;;;6.90;94.90;7.40;99391.00;;;;338555;28;84470;-91
2021/03/14 00:59:41;;;;;;;1.30;0.15;;;6.90;94.80;7.40;99395.00;;;;338101;28;83856;-91
2021/03/14 00:59:56;;;;;;;1.20;0.25;;;6.90;94.70;7.50;99397.00;;;;342135;28;82558;-91
2021/03/14 01:00:11;;;;;;;0.82;0.30;;;6.90;95.00;7.50;99397.00;;;;341292;28;84601;-90
2021/03/14 01:00:24;;;;;;;0.73;0.22;;;7.00;95.10;7.50;99407.00;;;;340932;28;82358;-91
2021/03/14 01:00:39;;;;;;;1.08;0.20;;;7.00;95.10;7.40;99400.00;;;;341404;28;86214;-91
2021/03/14 01:00:54;;;;;;;0.95;0.10;;;7.00;95.00;7.40;99396.00;;;;341061;28;82127;-91
2021/03/14 01:01:11;;;;;;;0.55;0.10;;;7.00;95.00;7.30;99391.00;;;;339899;28;85447;-91
2021/03/14 01:01:25;;;;;;;0.90;0.10;;;7.00;95.00;7.40;99394.00;;;;340242;28;83950;-91
2021/03/14 01:01:51;;;;;;;0.60;0.30;;;7.00;95.20;7.30;99397.00;;;;340931;28;84073;-92
2021/03/14 01:02:24;;;;;;;0.40;0.10;;;7.00;94.70;7.30;99395.00;;;;337734;28;83425;-92
2021/03/14 01:02:51;;;;;;;0.80;0.10;;;6.90;94.70;7.30;99401.00;;;;338561;28;84035;-92
2021/03/14 01:03:29;;;;;;;0.38;0.10;;;7.00;94.60;7.30;99389.00;;;;338332;28;83484;-91
2021/03/14 01:03:41;;;;;;;0.20;0.10;;;7.00;94.80;7.30;99393.00;;;;339027;28;82784;-91
2021/03/14 01:03:54;;;;;;;0.30;0.10;;;6.90;95.00;7.30;99402.00;;;;338827;28;83388;-91
2021/03/14 01:04:06;;;;;;;0.40;0.10;;;6.90;94.80;7.40;99388.00;;;;338878;28;85044;-91
2021/03/14 01:04:19;;;;;;;0.30;0.10;;;6.90;94.90;7.30;99397.00;;;;340092;28;85097;-92
2021/03/14 01:04:35;;;;;;;0.32;0.10;;;6.90;94.70;7.30;99392.00;;;;337554;28;87144;-91
2021/03/14 01:04:46;;;;;;;0.70;0.10;;;7.00;94.80;7.30;99399.00;;;;340173;28;83185;-90
2021/03/14 01:04:58;;;;;;;0.70;0.10;;;7.00;95.00;7.30;99398.00;;;;341588;28;85349;-91
2021/03/14 01:05:10;;;;;;;0.25;0.10;;;7.00;95.00;7.30;99395.00;;;;341250;28;83496;-92
2021/03/14 01:05:22;;;;;;;0.30;0.10;;;6.90;94.90;7.30;99399.00;;;;341103;28;83936;-91
2021/03/14 01:05:33;;;;;;;0.28;0.10;;;6.90;94.80;7.30;99400.00;;;;341493;28;83390;-91
2021/03/14 01:05:45;;;;;;;0.47;0.40;;;7.00;94.80;7.30;99390.00;;;;337176;28;87720;-92
2021/03/14 01:05:56;;;;;;;0.50;0.40;;;6.90;94.80;7.30;99401.00;;;;337081;28;84454;-91
2021/03/14 01:06:08;;;;;;;0.60;0.30;;;6.90;94.70;7.30;99399.00;;;;341922;28;86643;-91
2021/03/14 01:06:20;;;;;;;0.50;0.10;;;6.90;94.60;7.30;99407.00;;;;339888;28;83375;-92
2021/03/14 01:06:31;;;;;;;0.40;0.10;;;6.90;94.70;7.30;99398.00;;;;338742;28;86358;-91
2021/03/14 01:06:43;;;;;;;0.40;0.10;;;6.90;94.80;7.40;99404.00;;;;338790;28;83338;-91
2021/03/14 01:06:58;;;;;;;0.30;0.10;;;6.90;94.80;7.30;99407.00;;;;339917;28;88242;-91
2021/03/14 01:07:10;;;;;;;0.35;0.10;;;6.90;94.30;7.30;99407.00;;;;340242;28;82434;-91
2021/03/14 01:07:22;;;;;;;0.30;0.10;;;6.90;94.30;7.30;99399.00;;;;338762;28;87887;-91
2021/03/14 01:07:36;;;;;;;0.13;0.00;;;6.90;94.30;7.30;99409.00;;;;340097;28;83431;-90
2021/03/14 01:07:55;;;;;;;0.10;0.10;;;6.90;94.50;7.30;99408.00;;;;341399;28;84495;-91
2021/03/14 01:08:10;;;;;;;0.15;0.10;;;6.90;94.70;7.30;99407.00;;;;340049;28;85275;-91
2021/03/14 01:08:26;;;;;;;0.13;0.08;;;6.90;94.60;7.30;99408.00;;;;338675;28;83086;-91
2021/03/14 01:08:40;;;;;;;0.30;0.10;;;6.90;94.40;7.30;99411.00;;;;339410;28;82955;-91
2021/03/14 01:08:52;;;;;;;0.43;0.10;;;6.90;94.40;7.30;99415.00;;;;341326;28;84304;-91
2021/03/14 01:09:06;;;;;;;0.50;0.10;;;6.90;94.50;7.30;99407.00;;;;338781;28;83359;-91
2021/03/14 01:09:17;;;;;;;0.52;0.10;;;6.90;94.60;7.30;99403.00;;;;342756;28;88090;-90
2021/03/14 01:09:29;;;;;;;0.38;0.10;;;6.90;94.60;7.40;99404.00;;;;339654;28;85382;-92